Terminal Aerodrome Forecast
Issued by NWS

Home | Current Version | Previous Version | Graphics & Text | Print | Product List | Glossary On
Versions: 1 2 3 4 5 6 7 8 9 10 11 12 13 14 15 16
817
FTUS42 KMHX 232216 AAA
TAFISO
TAF AMD
KISO 232216Z 2322/2418 19010G17KT P6SM VCSH SCT050
      TEMPO 2322/2401 VRB15G25KT 4SM TSRA SCT025 BKN050CB
     FM240100 21012KT P6SM BKN100
     FM240600 21008KT P6SM BKN090
      AMD LTD TO CLD VIS AND WIND=

USA.gov is the U.S. government's official web portal to all federal, state and local government web resources and services.